createdAt,value
2022-10-09T00:00:25.665Z,10.73
2022-10-09T00:01:29.949Z,10.72
2022-10-09T00:02:34.188Z,10.70
2022-10-09T00:03:38.498Z,10.67
2022-10-09T00:04:42.656Z,10.64
2022-10-09T00:05:46.893Z,10.62
2022-10-09T00:06:51.199Z,10.60
2022-10-09T00:07:55.414Z,10.59
2022-10-09T00:08:59.724Z,10.59
2022-10-09T00:10:03.882Z,10.58
2022-10-09T00:11:08.130Z,10.57
2022-10-09T00:12:12.457Z,10.57
2022-10-09T00:13:16.651Z,10.56
2022-10-09T00:14:20.924Z,10.55
2022-10-09T00:15:25.158Z,10.56
2022-10-09T00:16:29.555Z,10.56
2022-10-09T00:17:33.677Z,10.56
2022-10-09T00:18:38.054Z,10.58
2022-10-09T00:19:42.230Z,10.61
2022-10-09T00:20:46.486Z,10.61
2022-10-09T00:21:50.782Z,10.61
2022-10-09T00:22:55.023Z,10.60
2022-10-09T00:23:59.253Z,10.58
2022-10-09T00:25:03.489Z,10.56
2022-10-09T00:26:07.724Z,10.55
2022-10-09T00:27:11.940Z,10.51
2022-10-09T00:28:16.245Z,10.49
2022-10-09T00:29:20.375Z,10.47
2022-10-09T00:30:24.653Z,10.46
2022-10-09T00:31:28.895Z,10.45
2022-10-09T00:32:33.128Z,10.44
2022-10-09T00:33:37.415Z,10.45
2022-10-09T00:34:41.663Z,10.47
2022-10-09T00:35:45.923Z,10.47
2022-10-09T00:36:53.251Z,10.47
2022-10-09T00:37:56.519Z,10.48
2022-10-09T00:39:00.777Z,10.48
2022-10-09T00:40:05.024Z,10.49
2022-10-09T00:41:09.330Z,10.50
2022-10-09T00:42:13.533Z,10.52
2022-10-09T00:43:17.819Z,10.52
2022-10-09T00:44:22.054Z,10.50
2022-10-09T00:45:26.290Z,10.49
2022-10-09T00:46:30.646Z,10.48
2022-10-09T00:47:34.885Z,10.47
2022-10-09T00:48:39.098Z,10.47
2022-10-09T00:49:43.488Z,10.46
2022-10-09T00:50:47.643Z,10.46
2022-10-09T00:51:51.887Z,10.45
2022-10-09T00:52:56.159Z,10.46
2022-10-09T00:54:00.409Z,10.47
2022-10-09T00:55:04.652Z,10.48
2022-10-09T00:56:08.985Z,10.48
2022-10-09T00:57:13.199Z,10.49
2022-10-09T00:58:17.507Z,10.48
2022-10-09T00:59:21.686Z,10.49
2022-10-09T01:00:25.932Z,10.49
2022-10-09T01:01:30.227Z,10.48
2022-10-09T01:02:34.547Z,10.48
2022-10-09T01:03:38.783Z,10.47
2022-10-09T01:04:43.009Z,10.47
2022-10-09T01:05:47.310Z,10.46
2022-10-09T01:06:51.509Z,10.46
2022-10-09T01:07:55.678Z,10.46
2022-10-09T01:09:00.049Z,10.46
2022-10-09T01:10:04.251Z,10.44
2022-10-09T01:11:08.480Z,10.43
2022-10-09T01:12:12.751Z,10.42
2022-10-09T01:13:16.996Z,10.40
2022-10-09T01:14:21.278Z,10.40
2022-10-09T01:15:25.645Z,10.39
2022-10-09T01:16:29.777Z,10.40
2022-10-09T01:17:34.002Z,10.40
2022-10-09T01:18:38.338Z,10.40
2022-10-09T01:19:42.655Z,10.37
2022-10-09T01:20:46.903Z,10.33
2022-10-09T01:21:51.181Z,10.32
2022-10-09T01:22:55.401Z,10.32
2022-10-09T01:23:59.780Z,10.33
2022-10-09T01:25:03.966Z,10.35
2022-10-09T01:26:08.270Z,10.37
2022-10-09T01:27:12.468Z,10.38
2022-10-09T01:28:16.888Z,10.38
2022-10-09T01:29:21.043Z,10.37
2022-10-09T01:30:25.294Z,10.36
2022-10-09T01:31:29.717Z,10.36
2022-10-09T01:32:33.854Z,10.35
2022-10-09T01:33:38.025Z,10.33
2022-10-09T01:34:42.265Z,10.32
2022-10-09T01:35:46.551Z,10.33
2022-10-09T01:36:50.776Z,10.34
2022-10-09T01:37:55.083Z,10.35
2022-10-09T01:38:59.306Z,10.34
2022-10-09T01:40:03.570Z,10.32
2022-10-09T01:41:07.841Z,10.30
2022-10-09T01:42:12.077Z,10.27
2022-10-09T01:43:16.313Z,10.25
2022-10-09T01:44:20.593Z,10.22
2022-10-09T01:45:24.798Z,10.19
2022-10-09T01:46:29.140Z,10.16
2022-10-09T01:47:33.289Z,10.16
2022-10-09T01:48:37.478Z,10.14
2022-10-09T01:49:41.765Z,10.13
2022-10-09T01:50:45.997Z,10.13
2022-10-09T01:51:50.281Z,10.13
2022-10-09T01:52:54.566Z,10.14
2022-10-09T01:53:58.719Z,10.14
2022-10-09T01:55:02.983Z,10.13
2022-10-09T01:56:07.323Z,10.13
2022-10-09T01:57:11.572Z,10.14
2022-10-09T01:58:15.814Z,10.14
2022-10-09T01:59:20.019Z,10.14
2022-10-09T02:00:24.321Z,10.13
2022-10-09T02:01:28.487Z,10.11
2022-10-09T02:02:32.841Z,10.09
2022-10-09T02:03:36.982Z,10.08
2022-10-09T02:04:41.323Z,10.07
2022-10-09T02:05:45.592Z,10.05
2022-10-09T02:06:49.767Z,10.04
2022-10-09T02:07:54.028Z,10.03
2022-10-09T02:08:58.247Z,10.04
2022-10-09T02:10:02.477Z,10.02
2022-10-09T02:11:06.744Z,10.01
2022-10-09T02:12:10.961Z,10.00
2022-10-09T02:13:15.162Z,9.99
2022-10-09T02:14:19.510Z,9.98
2022-10-09T02:15:23.606Z,9.97
2022-10-09T02:16:27.934Z,9.99
2022-10-09T02:17:32.231Z,10.00
2022-10-09T02:18:36.449Z,10.00
2022-10-09T02:19:40.671Z,10.02
2022-10-09T02:20:44.839Z,10.03
2022-10-09T02:21:53.683Z,10.04
2022-10-09T02:22:53.373Z,10.04
2022-10-09T02:23:57.583Z,10.04
2022-10-09T02:25:01.862Z,10.03
2022-10-09T02:26:06.083Z,10.02
2022-10-09T02:27:10.309Z,10.01
2022-10-09T02:28:14.652Z,10.00
2022-10-09T02:29:18.787Z,9.99
2022-10-09T02:30:23.031Z,9.99
2022-10-09T02:31:27.549Z,9.99
2022-10-09T02:32:31.540Z,9.98
2022-10-09T02:33:35.687Z,9.96
2022-10-09T02:34:39.979Z,9.94
2022-10-09T02:35:44.332Z,9.92
2022-10-09T02:36:48.603Z,9.91
2022-10-09T02:37:52.790Z,9.89
2022-10-09T02:38:57.048Z,9.89
2022-10-09T02:40:01.267Z,9.90
2022-10-09T02:41:05.508Z,9.91
2022-10-09T02:42:09.867Z,9.92
2022-10-09T02:43:14.082Z,9.94
2022-10-09T02:44:18.313Z,9.96
2022-10-09T02:45:22.539Z,9.98
2022-10-09T02:46:26.916Z,10.00
2022-10-09T02:47:31.057Z,10.02
2022-10-09T02:48:35.234Z,10.02
2022-10-09T02:49:39.616Z,10.03
2022-10-09T02:50:43.805Z,10.03
2022-10-09T02:51:48.077Z,10.01
2022-10-09T02:52:52.411Z,9.99
2022-10-09T02:53:56.593Z,9.97
2022-10-09T02:55:00.880Z,9.95
2022-10-09T02:56:05.061Z,9.93
2022-10-09T02:57:09.273Z,9.92
2022-10-09T02:58:13.525Z,9.90
2022-10-09T02:59:17.877Z,9.89
2022-10-09T03:00:22.066Z,9.89
2022-10-09T03:01:26.440Z,9.89
2022-10-09T03:02:30.686Z,9.90
2022-10-09T03:03:34.822Z,9.91
2022-10-09T03:04:39.159Z,9.91
2022-10-09T03:05:43.352Z,9.91
2022-10-09T03:06:47.672Z,9.91
2022-10-09T03:07:51.820Z,9.90
2022-10-09T03:08:56.077Z,9.89
2022-10-09T03:10:00.303Z,9.88
2022-10-09T03:11:04.532Z,9.87
2022-10-09T03:12:08.739Z,9.86
2022-10-09T03:13:12.971Z,9.85
2022-10-09T03:14:17.313Z,9.84
2022-10-09T03:15:21.488Z,9.82
2022-10-09T03:16:25.811Z,9.81
2022-10-09T03:17:29.964Z,9.80
2022-10-09T03:18:34.212Z,9.81
2022-10-09T03:19:38.337Z,9.81
2022-10-09T03:20:45.653Z,9.83
2022-10-09T03:21:49.021Z,9.84
2022-10-09T03:22:53.249Z,9.86
2022-10-09T03:23:57.436Z,9.89
2022-10-09T03:25:01.773Z,9.91
2022-10-09T03:26:05.887Z,9.92
2022-10-09T03:27:10.136Z,9.94
2022-10-09T03:28:14.550Z,9.95
2022-10-09T03:29:18.736Z,9.94
2022-10-09T03:30:22.947Z,9.92
2022-10-09T03:31:57.026Z,9.88
2022-10-09T03:32:31.653Z,9.85
2022-10-09T03:33:35.876Z,9.84
2022-10-09T03:34:40.166Z,9.82
2022-10-09T03:35:44.454Z,9.83
2022-10-09T03:36:48.724Z,9.83
2022-10-09T03:37:53.005Z,9.85
2022-10-09T03:38:57.201Z,9.86
2022-10-09T03:40:01.597Z,9.87
2022-10-09T03:41:05.684Z,9.89
2022-10-09T03:42:09.942Z,9.91
2022-10-09T03:43:14.295Z,9.92
2022-10-09T03:44:18.673Z,9.93
2022-10-09T03:45:22.920Z,9.94
2022-10-09T03:46:27.323Z,9.95
2022-10-09T03:47:31.618Z,9.95
2022-10-09T03:48:35.774Z,9.96
2022-10-09T03:49:40.201Z,9.96
2022-10-09T03:50:44.374Z,9.96
2022-10-09T03:51:51.697Z,9.96
2022-10-09T03:52:55.071Z,9.97
2022-10-09T03:53:59.310Z,9.97
2022-10-09T03:55:03.604Z,9.97
2022-10-09T03:56:07.908Z,9.96
2022-10-09T03:57:12.126Z,9.96
2022-10-09T03:58:16.423Z,9.96
2022-10-09T03:59:20.597Z,9.96
2022-10-09T04:00:24.927Z,9.95
2022-10-09T04:01:29.323Z,9.94
2022-10-09T04:02:33.569Z,9.93
2022-10-09T04:03:37.775Z,9.92
2022-10-09T04:04:42.059Z,9.91
2022-10-09T04:05:46.333Z,9.89
2022-10-09T04:06:50.601Z,9.87
2022-10-09T04:07:54.876Z,9.86
2022-10-09T04:08:59.052Z,9.85
2022-10-09T04:10:03.378Z,9.84
2022-10-09T04:11:07.645Z,9.84
2022-10-09T04:12:11.772Z,9.84
2022-10-09T04:13:16.178Z,9.84
2022-10-09T04:14:20.333Z,9.83
2022-10-09T04:15:24.554Z,9.83
2022-10-09T04:16:28.851Z,9.82
2022-10-09T04:17:33.058Z,9.80
2022-10-09T04:18:37.376Z,9.80
2022-10-09T04:19:41.521Z,9.79
2022-10-09T04:20:45.769Z,9.78
2022-10-09T04:21:50.045Z,9.78
2022-10-09T04:22:54.290Z,9.77
2022-10-09T04:23:58.506Z,9.76
2022-10-09T04:25:02.829Z,9.75
2022-10-09T04:26:06.995Z,9.74
2022-10-09T04:27:11.321Z,9.74
2022-10-09T04:28:15.565Z,9.74
2022-10-09T04:29:19.823Z,9.74
2022-10-09T04:30:24.093Z,9.74
2022-10-09T04:31:28.429Z,9.73
2022-10-09T04:32:32.519Z,9.73
2022-10-09T04:33:36.873Z,9.73
2022-10-09T04:34:41.172Z,9.72
2022-10-09T04:35:45.352Z,9.71
2022-10-09T04:36:49.692Z,9.71
2022-10-09T04:37:54.011Z,9.70
2022-10-09T04:38:58.146Z,9.69
2022-10-09T04:40:02.386Z,9.68
2022-10-09T04:41:09.664Z,9.67
2022-10-09T04:42:13.031Z,9.67
2022-10-09T04:43:17.298Z,9.67
2022-10-09T04:44:21.599Z,9.66
2022-10-09T04:45:26.037Z,9.65
2022-10-09T04:46:29.996Z,9.65
2022-10-09T04:47:34.387Z,9.64
2022-10-09T04:48:38.563Z,9.63
2022-10-09T04:49:42.880Z,9.62
2022-10-09T04:50:47.069Z,9.61
2022-10-09T04:51:51.424Z,9.60
2022-10-09T04:52:55.636Z,9.59
2022-10-09T04:54:00.836Z,9.59
2022-10-09T04:55:04.177Z,9.58
2022-10-09T04:56:08.525Z,9.57
2022-10-09T04:57:12.707Z,9.56
2022-10-09T04:58:17.023Z,9.55
2022-10-09T04:59:21.166Z,9.55
2022-10-09T05:00:25.399Z,9.53
2022-10-09T05:01:32.055Z,9.51
2022-10-09T05:02:34.037Z,9.49
2022-10-09T05:03:38.153Z,9.46
2022-10-09T05:04:42.481Z,9.44
2022-10-09T05:05:46.757Z,9.42
2022-10-09T05:06:50.919Z,9.39
2022-10-09T05:07:55.226Z,9.37
2022-10-09T05:08:59.540Z,9.34
2022-10-09T05:10:03.691Z,9.31
2022-10-09T05:11:07.981Z,9.29
2022-10-09T05:12:12.251Z,9.26
2022-10-09T05:13:16.541Z,9.23
2022-10-09T05:14:20.747Z,9.21
2022-10-09T05:15:24.996Z,9.19
2022-10-09T05:16:29.427Z,9.17
2022-10-09T05:17:33.621Z,9.15
2022-10-09T05:18:37.810Z,9.13
2022-10-09T05:19:41.989Z,9.12
2022-10-09T05:20:46.311Z,9.12
2022-10-09T05:21:50.573Z,9.11
2022-10-09T05:22:54.994Z,9.11
2022-10-09T05:23:59.218Z,9.10
2022-10-09T05:25:03.468Z,9.10
2022-10-09T05:26:07.717Z,9.09
2022-10-09T05:27:11.956Z,9.09
2022-10-09T05:28:16.298Z,9.09
2022-10-09T05:29:20.498Z,9.09
2022-10-09T05:30:27.766Z,9.08
2022-10-09T05:31:31.245Z,9.07
2022-10-09T05:32:35.428Z,9.07
2022-10-09T05:33:39.717Z,9.07
2022-10-09T05:34:43.887Z,9.07
2022-10-09T05:35:48.220Z,9.06
2022-10-09T05:36:52.534Z,9.05
2022-10-09T05:37:56.765Z,9.04
2022-10-09T05:39:01.046Z,9.05
2022-10-09T05:40:05.303Z,9.04
2022-10-09T05:41:09.341Z,9.04
2022-10-09T05:42:13.630Z,9.03
2022-10-09T05:43:17.936Z,9.01
2022-10-09T05:44:22.337Z,8.99
2022-10-09T05:45:26.537Z,8.98
2022-10-09T05:46:30.710Z,8.97
2022-10-09T05:47:35.026Z,8.97
2022-10-09T05:48:39.297Z,8.95
2022-10-09T05:49:43.567Z,8.94
2022-10-09T05:50:47.819Z,8.94
2022-10-09T05:51:52.111Z,8.94
2022-10-09T05:52:56.404Z,8.93
2022-10-09T05:54:00.575Z,8.92
2022-10-09T05:55:04.822Z,8.91
2022-10-09T05:56:09.128Z,8.91
2022-10-09T05:57:13.439Z,8.93
2022-10-09T05:58:17.662Z,8.95
2022-10-09T05:59:21.829Z,8.98
2022-10-09T06:00:26.098Z,9.00
2022-10-09T06:01:30.476Z,9.01
2022-10-09T06:02:34.784Z,9.03
2022-10-09T06:03:38.949Z,9.04
2022-10-09T06:04:43.116Z,9.06
2022-10-09T06:05:47.337Z,9.08
2022-10-09T06:06:51.614Z,9.10
2022-10-09T06:07:55.699Z,9.12
2022-10-09T06:09:00.088Z,9.14
2022-10-09T06:10:04.272Z,9.15
2022-10-09T06:11:08.490Z,9.17
2022-10-09T06:12:12.798Z,9.18
2022-10-09T06:13:17.077Z,9.19
2022-10-09T06:14:21.333Z,9.20
2022-10-09T06:15:25.593Z,9.21
2022-10-09T06:16:29.854Z,9.23
2022-10-09T06:17:34.131Z,9.24
2022-10-09T06:18:38.412Z,9.25
2022-10-09T06:19:42.665Z,9.27
2022-10-09T06:20:46.937Z,9.27
2022-10-09T06:21:51.224Z,9.27
2022-10-09T06:22:55.461Z,9.27
2022-10-09T06:23:59.748Z,9.27
2022-10-09T06:25:03.987Z,9.28
2022-10-09T06:26:08.266Z,9.29
2022-10-09T06:27:12.558Z,9.30
2022-10-09T06:28:16.801Z,9.32
2022-10-09T06:29:20.936Z,9.33
2022-10-09T06:30:25.156Z,9.35
2022-10-09T06:31:29.533Z,9.36
2022-10-09T06:32:33.680Z,9.37
2022-10-09T06:33:37.900Z,9.36
2022-10-09T06:34:42.240Z,9.36
2022-10-09T06:35:46.501Z,9.37
2022-10-09T06:36:50.687Z,9.38
2022-10-09T06:37:54.901Z,9.40
2022-10-09T06:38:59.115Z,9.42
2022-10-09T06:40:03.346Z,9.43
2022-10-09T06:41:07.679Z,9.45
2022-10-09T06:42:12.089Z,9.47
2022-10-09T06:43:16.329Z,9.50
2022-10-09T06:44:20.585Z,9.53
2022-10-09T06:45:24.733Z,9.56
2022-10-09T06:46:29.080Z,9.58
2022-10-09T06:47:33.354Z,9.62
2022-10-09T06:48:37.654Z,9.64
2022-10-09T06:49:41.932Z,9.67
2022-10-09T06:50:46.099Z,9.71
2022-10-09T06:51:50.317Z,9.73
2022-10-09T06:52:54.656Z,9.76
2022-10-09T06:53:58.860Z,9.79
2022-10-09T06:55:03.141Z,9.82
2022-10-09T06:56:07.449Z,9.85
2022-10-09T06:57:11.725Z,9.87
2022-10-09T06:58:16.038Z,9.91
2022-10-09T06:59:20.237Z,9.93
2022-10-09T07:00:24.426Z,9.96
2022-10-09T07:01:28.846Z,9.99
2022-10-09T07:02:33.150Z,10.01
2022-10-09T07:03:37.304Z,10.03
2022-10-09T07:04:41.489Z,10.06
2022-10-09T07:05:45.832Z,10.08
2022-10-09T07:06:50.152Z,10.10
2022-10-09T07:07:54.383Z,10.12
2022-10-09T07:08:58.673Z,10.14
2022-10-09T07:10:03.001Z,10.16
2022-10-09T07:11:07.153Z,10.18
2022-10-09T07:12:11.382Z,10.20
2022-10-09T07:13:15.698Z,10.22
2022-10-09T07:14:20.002Z,10.25
2022-10-09T07:15:24.268Z,10.27
2022-10-09T07:16:28.515Z,10.30
2022-10-09T07:17:32.778Z,10.32
2022-10-09T07:18:36.953Z,10.35
2022-10-09T07:19:41.323Z,10.37
2022-10-09T07:20:45.595Z,10.39
2022-10-09T07:21:49.893Z,10.41
2022-10-09T07:22:54.192Z,10.44
2022-10-09T07:23:58.387Z,10.46
2022-10-09T07:25:02.669Z,10.48
2022-10-09T07:26:07.035Z,10.50
2022-10-09T07:27:11.381Z,10.52
2022-10-09T07:28:15.664Z,10.53
2022-10-09T07:29:19.864Z,10.55
2022-10-09T07:30:24.176Z,10.57
2022-10-09T07:31:28.580Z,10.59
2022-10-09T07:32:32.935Z,10.61
2022-10-09T07:33:37.190Z,10.63
2022-10-09T07:34:41.487Z,10.65
2022-10-09T07:35:45.783Z,10.66
2022-10-09T07:36:50.053Z,10.68
2022-10-09T07:37:54.342Z,10.69
2022-10-09T07:38:58.657Z,10.71
2022-10-09T07:40:02.939Z,10.73
2022-10-09T07:41:07.180Z,10.74
2022-10-09T07:42:11.538Z,10.75
2022-10-09T07:43:15.842Z,10.76
2022-10-09T07:44:20.167Z,10.77
2022-10-09T07:45:24.470Z,10.79
2022-10-09T07:46:33.457Z,10.81
2022-10-09T07:47:33.037Z,10.82
2022-10-09T07:48:37.234Z,10.85
2022-10-09T07:49:41.582Z,10.86
2022-10-09T07:50:45.981Z,10.89
2022-10-09T07:51:50.216Z,10.91
2022-10-09T07:52:54.615Z,10.93
2022-10-09T07:53:58.852Z,10.94
2022-10-09T07:55:03.235Z,10.96
2022-10-09T07:56:07.535Z,10.98
2022-10-09T07:57:11.833Z,11.00
2022-10-09T07:58:19.027Z,11.03
2022-10-09T07:59:22.371Z,11.04
2022-10-09T08:00:26.669Z,11.06
2022-10-09T08:01:31.139Z,11.08
2022-10-09T08:02:35.326Z,11.09
2022-10-09T08:03:39.567Z,11.11
2022-10-09T08:04:43.850Z,11.12
2022-10-09T08:05:48.117Z,11.14
2022-10-09T08:06:52.422Z,11.16
2022-10-09T08:07:56.681Z,11.19
2022-10-09T08:09:00.981Z,11.21
2022-10-09T08:10:05.173Z,11.23
2022-10-09T08:11:09.546Z,11.26
2022-10-09T08:12:13.870Z,11.27
2022-10-09T08:13:18.122Z,11.29
2022-10-09T08:14:22.415Z,11.30
2022-10-09T08:15:26.718Z,11.31
2022-10-09T08:16:31.001Z,11.32
2022-10-09T08:17:35.294Z,11.33
2022-10-09T08:18:39.607Z,11.34
2022-10-09T08:19:43.887Z,11.36
2022-10-09T08:20:48.198Z,11.37
2022-10-09T08:21:52.491Z,11.38
2022-10-09T08:22:56.790Z,11.40
2022-10-09T08:24:01.077Z,11.42
2022-10-09T08:25:05.359Z,11.44
2022-10-09T08:26:09.693Z,11.47
2022-10-09T08:27:13.998Z,11.49
2022-10-09T08:28:18.380Z,11.51
2022-10-09T08:29:22.575Z,11.52
2022-10-09T08:30:26.903Z,11.54
2022-10-09T08:31:31.222Z,11.55
2022-10-09T08:32:35.492Z,11.57
2022-10-09T08:33:39.826Z,11.59
2022-10-09T08:34:44.118Z,11.61
2022-10-09T08:35:48.440Z,11.63
2022-10-09T08:36:52.723Z,11.65
2022-10-09T08:37:57.003Z,11.67
2022-10-09T08:39:01.348Z,11.69
2022-10-09T08:40:05.548Z,11.71
2022-10-09T08:41:09.799Z,11.73
2022-10-09T08:42:14.171Z,11.75
2022-10-09T08:43:18.453Z,11.76
2022-10-09T08:44:22.816Z,11.78
2022-10-09T08:45:27.059Z,11.80
2022-10-09T08:46:31.455Z,11.82
2022-10-09T08:47:35.626Z,11.84
2022-10-09T08:48:39.976Z,11.86
2022-10-09T08:49:44.274Z,11.88
2022-10-09T08:50:48.601Z,11.89
2022-10-09T08:51:52.820Z,11.91
2022-10-09T08:52:57.403Z,11.93
2022-10-09T08:54:01.411Z,11.95
2022-10-09T08:55:05.709Z,11.96
2022-10-09T08:56:10.054Z,11.98
2022-10-09T08:57:14.285Z,12.00
2022-10-09T08:58:18.605Z,12.02
2022-10-09T08:59:22.917Z,12.03
2022-10-09T09:00:27.133Z,12.05
2022-10-09T09:01:31.607Z,12.07
2022-10-09T09:02:35.885Z,12.10
2022-10-09T09:03:40.121Z,12.11
2022-10-09T09:04:44.449Z,12.14
2022-10-09T09:05:48.761Z,12.17
2022-10-09T09:06:52.948Z,12.19
2022-10-09T09:07:57.349Z,12.22
2022-10-09T09:09:01.654Z,12.24
2022-10-09T09:10:05.959Z,12.27
2022-10-09T09:11:10.295Z,12.30
2022-10-09T09:12:14.582Z,12.33
2022-10-09T09:13:18.889Z,12.36
2022-10-09T09:14:23.191Z,12.39
2022-10-09T09:15:27.497Z,12.42
2022-10-09T09:16:31.891Z,12.44
2022-10-09T09:17:36.133Z,12.47
2022-10-09T09:18:42.821Z,12.49
2022-10-09T09:19:44.723Z,12.53
2022-10-09T09:20:49.028Z,12.56
2022-10-09T09:21:53.350Z,12.59
2022-10-09T09:22:57.787Z,12.61
2022-10-09T09:24:02.042Z,12.64
2022-10-09T09:25:09.270Z,12.67
2022-10-09T09:26:12.645Z,12.69
2022-10-09T09:27:16.775Z,12.73
2022-10-09T09:28:21.194Z,12.75
2022-10-09T09:29:25.349Z,12.78
2022-10-09T09:30:29.562Z,12.80
2022-10-09T09:31:33.926Z,12.83
2022-10-09T09:32:38.070Z,12.85
2022-10-09T09:33:44.651Z,12.88
2022-10-09T09:34:46.586Z,12.91
2022-10-09T09:35:50.793Z,12.94
2022-10-09T09:36:55.026Z,12.97
2022-10-09T09:37:59.304Z,13.00
2022-10-09T09:40:35.722Z,13.06
2022-10-09T09:41:12.074Z,13.10
2022-10-09T09:42:16.366Z,13.13
2022-10-09T09:43:20.636Z,13.16
2022-10-09T09:44:24.786Z,13.19
2022-10-09T09:45:29.141Z,13.22
2022-10-09T09:46:33.485Z,13.25
2022-10-09T09:47:37.648Z,13.27
2022-10-09T09:48:41.968Z,13.30
2022-10-09T09:49:46.245Z,13.32
2022-10-09T09:51:05.027Z,13.35
2022-10-09T09:51:54.788Z,13.37
2022-10-09T09:52:59.079Z,13.40
2022-10-09T09:54:03.455Z,13.42
2022-10-09T09:55:07.614Z,13.45
2022-10-09T09:56:11.816Z,13.47
2022-10-09T09:57:21.659Z,13.50
2022-10-09T09:58:20.467Z,13.53
2022-10-09T09:59:24.730Z,13.55
2022-10-09T10:00:29.169Z,13.58
2022-10-09T10:01:33.372Z,13.60
2022-10-09T10:02:37.649Z,13.63
2022-10-09T10:03:41.896Z,13.65
2022-10-09T10:04:46.312Z,13.68
2022-10-09T10:05:50.506Z,13.71
2022-10-09T10:06:54.791Z,13.74
2022-10-09T10:07:59.116Z,13.78
2022-10-09T10:09:03.339Z,13.81
2022-10-09T10:10:07.682Z,13.84
2022-10-09T10:11:11.913Z,13.86
2022-10-09T10:12:16.251Z,13.89
2022-10-09T10:13:20.507Z,13.91
2022-10-09T10:14:24.877Z,13.93
2022-10-09T10:15:29.209Z,13.96
2022-10-09T10:16:33.564Z,14.00
2022-10-09T10:17:37.711Z,14.02
2022-10-09T10:18:42.007Z,14.06
2022-10-09T10:19:46.266Z,14.09
2022-10-09T10:20:50.550Z,14.12
2022-10-09T10:21:54.865Z,14.15
2022-10-09T10:22:59.195Z,14.17
2022-10-09T10:24:03.531Z,14.19
2022-10-09T10:25:10.458Z,14.23
2022-10-09T10:26:12.010Z,14.26
2022-10-09T10:27:16.328Z,14.29
2022-10-09T10:28:20.676Z,14.31
2022-10-09T10:29:24.958Z,14.35
2022-10-09T10:30:29.183Z,14.38
2022-10-09T10:31:33.600Z,14.41
2022-10-09T10:32:37.794Z,14.44
2022-10-09T10:33:42.104Z,14.47
2022-10-09T10:34:46.503Z,14.49
2022-10-09T10:35:50.795Z,14.51
2022-10-09T10:36:58.495Z,14.54
2022-10-09T10:37:59.584Z,14.56
2022-10-09T10:39:03.791Z,14.59
2022-10-09T10:40:08.161Z,14.61
2022-10-09T10:41:12.407Z,14.64
2022-10-09T10:42:16.687Z,14.62
2022-10-09T10:43:21.088Z,14.58
2022-10-09T10:44:25.338Z,14.60
2022-10-09T10:45:29.761Z,14.63
2022-10-09T10:46:34.021Z,14.65
2022-10-09T10:47:38.327Z,14.62
2022-10-09T10:48:42.623Z,14.60
2022-10-09T10:49:46.887Z,14.60
2022-10-09T10:50:51.170Z,14.62
2022-10-09T10:51:55.545Z,14.62
2022-10-09T10:52:59.800Z,14.56
2022-10-09T10:54:04.138Z,14.51
2022-10-09T10:55:08.449Z,14.49
2022-10-09T10:56:12.732Z,14.53
2022-10-09T10:57:17.010Z,14.57
2022-10-09T10:59:25.574Z,14.74
2022-10-09T11:00:29.964Z,14.79
2022-10-09T11:01:34.260Z,14.85
2022-10-09T11:02:41.214Z,14.88
2022-10-09T11:03:42.962Z,14.92
2022-10-09T11:04:47.248Z,14.98
2022-10-09T11:05:51.514Z,15.00
2022-10-09T11:06:55.819Z,15.00
2022-10-09T11:08:00.456Z,14.99
2022-10-09T11:09:04.419Z,15.02
2022-10-09T11:10:08.917Z,15.05
2022-10-09T11:11:13.118Z,15.00
2022-10-09T11:12:24.882Z,15.00
2022-10-09T11:13:21.795Z,14.99
2022-10-09T11:14:26.063Z,14.96
2022-10-09T11:15:30.350Z,14.92
2022-10-09T11:16:34.798Z,14.95
2022-10-09T11:17:38.973Z,15.01
2022-10-09T11:18:43.369Z,15.04
2022-10-09T11:19:47.736Z,15.06
2022-10-09T11:20:52.065Z,15.07
2022-10-09T11:21:56.300Z,15.11
2022-10-09T11:23:00.617Z,15.07
2022-10-09T11:24:05.002Z,15.00
2022-10-09T11:25:09.493Z,15.02
2022-10-09T11:26:13.600Z,14.90
2022-10-09T11:27:17.907Z,14.91
2022-10-09T11:28:22.234Z,14.99
2022-10-09T11:29:26.469Z,15.05
2022-10-09T11:30:30.767Z,14.91
2022-10-09T11:31:35.184Z,14.84
2022-10-09T11:33:43.854Z,15.06
2022-10-09T11:34:48.225Z,15.20
2022-10-09T11:35:52.433Z,15.07
2022-10-09T11:36:56.733Z,15.04
2022-10-09T11:38:01.028Z,15.24
2022-10-09T11:39:05.321Z,15.33
2022-10-09T11:40:09.613Z,15.46
2022-10-09T11:41:13.967Z,15.49
2022-10-09T11:42:18.330Z,15.54
2022-10-09T11:43:22.749Z,15.50
2022-10-09T11:44:27.022Z,15.41
2022-10-09T11:45:31.409Z,15.41
2022-10-09T11:46:35.745Z,15.36
2022-10-09T11:47:40.015Z,15.49
2022-10-09T11:48:44.339Z,15.50
2022-10-09T11:49:48.660Z,15.57
2022-10-09T11:50:52.966Z,15.66
2022-10-09T11:51:57.287Z,15.69
2022-10-09T11:53:01.580Z,15.66
2022-10-09T11:54:05.974Z,15.67
2022-10-09T11:55:10.262Z,15.54
2022-10-09T11:56:14.764Z,15.52
2022-10-09T11:57:19.094Z,15.74
2022-10-09T11:58:23.445Z,15.83
2022-10-09T11:59:27.738Z,15.86
2022-10-09T12:00:31.987Z,15.88
2022-10-09T12:01:36.480Z,15.81
2022-10-09T12:02:40.807Z,15.67
2022-10-09T12:03:45.026Z,15.67
2022-10-09T12:04:54.829Z,15.54
2022-10-09T12:05:53.758Z,15.64
2022-10-09T12:07:01.165Z,15.68
2022-10-09T12:08:04.580Z,15.69
2022-10-09T12:09:08.870Z,15.61
2022-10-09T12:10:13.202Z,15.45
2022-10-09T12:11:17.729Z,15.74
2022-10-09T12:12:21.959Z,15.80
2022-10-09T12:13:26.383Z,15.66
2022-10-09T12:14:30.650Z,15.27
2022-10-09T12:15:35.007Z,15.25
2022-10-09T12:16:39.495Z,15.38
2022-10-09T12:17:43.714Z,15.65
2022-10-09T12:18:48.054Z,15.51
2022-10-09T12:19:52.408Z,15.45
2022-10-09T12:20:56.751Z,15.24
2022-10-09T12:22:01.259Z,15.49
2022-10-09T12:23:25.881Z,15.65
2022-10-09T12:24:09.839Z,15.78
2022-10-09T12:25:14.215Z,15.42
2022-10-09T12:26:18.560Z,15.34
2022-10-09T12:27:22.997Z,15.06
2022-10-09T12:28:27.409Z,15.29
2022-10-09T12:29:31.644Z,15.55
2022-10-09T12:30:36.111Z,15.25
2022-10-09T12:31:40.401Z,15.61
2022-10-09T12:32:44.787Z,15.88
2022-10-09T12:33:49.100Z,15.82
2022-10-09T12:34:53.604Z,15.89
2022-10-09T12:35:57.976Z,15.77
2022-10-09T12:37:02.378Z,15.23
2022-10-09T12:38:06.722Z,15.29
2022-10-09T12:39:11.034Z,15.41
2022-10-09T12:40:15.386Z,15.19
2022-10-09T12:41:20.463Z,15.43
2022-10-09T12:42:24.236Z,15.64
2022-10-09T12:43:28.544Z,15.53
2022-10-09T12:44:32.843Z,15.61
2022-10-09T12:45:37.348Z,15.55
2022-10-09T12:46:41.541Z,15.17
2022-10-09T12:47:45.883Z,15.15
2022-10-09T12:48:50.240Z,15.26
2022-10-09T12:49:54.674Z,15.63
2022-10-09T12:50:59.101Z,15.68
2022-10-09T12:52:03.435Z,15.23
2022-10-09T12:53:07.827Z,15.51
2022-10-09T12:54:12.129Z,15.47
2022-10-09T12:55:16.538Z,15.44
2022-10-09T12:56:20.928Z,15.55
2022-10-09T12:57:27.798Z,15.51
2022-10-09T12:58:29.658Z,15.56
2022-10-09T12:59:33.987Z,15.37
2022-10-09T13:00:38.416Z,15.57
2022-10-09T13:01:42.854Z,15.30
2022-10-09T13:02:47.199Z,15.27
2022-10-09T13:03:51.404Z,15.17
2022-10-09T13:04:55.822Z,15.60
2022-10-09T13:06:00.272Z,15.56
2022-10-09T13:07:04.577Z,15.59
2022-10-09T13:08:09.021Z,15.25
2022-10-09T13:09:13.418Z,14.75
2022-10-09T13:10:17.795Z,14.97
2022-10-09T13:11:22.141Z,15.22
2022-10-09T13:12:26.592Z,15.07
2022-10-09T13:13:30.948Z,15.05
2022-10-09T13:14:35.293Z,14.96
2022-10-09T13:15:39.778Z,14.69
2022-10-09T13:16:44.189Z,14.61
2022-10-09T13:17:48.881Z,14.80
2022-10-09T13:18:52.940Z,14.92
2022-10-09T13:19:57.121Z,14.86
2022-10-09T13:21:01.448Z,14.69
2022-10-09T13:22:05.773Z,14.10
2022-10-09T13:23:10.111Z,14.14
2022-10-09T13:24:14.470Z,14.25
2022-10-09T13:25:18.834Z,14.08
2022-10-09T13:26:23.208Z,14.05
2022-10-09T13:27:27.578Z,14.08
2022-10-09T13:28:32.060Z,14.33
2022-10-09T13:29:36.223Z,14.44
2022-10-09T13:30:40.665Z,14.59
2022-10-09T13:31:45.047Z,14.49
2022-10-09T13:32:49.327Z,14.51
2022-10-09T13:33:53.709Z,14.39
2022-10-09T13:34:58.026Z,14.10
2022-10-09T13:36:02.448Z,14.01
2022-10-09T13:37:06.723Z,13.93
2022-10-09T13:38:11.066Z,13.84
2022-10-09T13:39:15.374Z,13.78
2022-10-09T13:40:19.689Z,13.94
2022-10-09T13:41:23.996Z,14.06
2022-10-09T13:42:28.381Z,14.14
2022-10-09T13:43:32.822Z,13.96
2022-10-09T13:44:37.218Z,13.92
2022-10-09T13:45:41.518Z,13.58
2022-10-09T13:46:45.806Z,13.43
2022-10-09T13:47:50.620Z,13.73
2022-10-09T13:48:54.492Z,13.94
2022-10-09T13:49:58.866Z,13.94
2022-10-09T13:51:03.161Z,13.90
2022-10-09T13:52:07.473Z,13.78
2022-10-09T13:53:11.825Z,14.00
2022-10-09T13:54:16.183Z,14.18
2022-10-09T13:55:20.560Z,14.20
2022-10-09T13:56:24.929Z,13.86
2022-10-09T13:57:29.408Z,13.85
2022-10-09T13:58:33.706Z,13.89
2022-10-09T13:59:38.045Z,13.80